Time,TemperatureF,DewpointF,PressureIn,WindDirection,WindDirectionDegrees,WindSpeedMPH,WindSpeedGustMPH,Humidity,HourlyPrecipIn,Conditions,Clouds,dailyrainin,SoftwareType,DateUTC
2013-02-25 00:00:00,31.1,-7.4,29.47,NW,315,4.9,4.9,18,-99.99,,---,-99.99,VWS V14.01,2013-02-25 05:00:00,
2013-02-25 00:01:00,31.1,-7.4,29.47,NW,315,4.9,4.9,18,-99.99,,---,-99.99,VWS V14.01,2013-02-25 05:01:00,
2013-02-25 00:06:00,31.1,-7.4,29.47,West,281,3.6,3.6,18,-99.99,,---,-99.99,VWS V14.01,2013-02-25 05:06:00,
2013-02-25 00:11:00,31.1,-7.4,29.47,NW,322,3.6,3.6,18,-99.99,,---,-99.99,VWS V14.01,2013-02-25 05:11:00,
2013-02-25 00:16:00,31.1,-7.4,29.47,NW,322,3.6,3.6,18,-99.99,,---,-99.99,VWS V14.01,2013-02-25 05:16:00,
2013-02-25 00:22:00,30.9,-7.6,29.47,West,272,0.0,0.0,18,-99.99,,---,-99.99,VWS V14.01,2013-02-25 05:22:00,
2013-02-25 00:27:00,30.7,-7.7,29.47,West,279,4.0,5.8,18,-99.99,,---,-99.99,VWS V14.01,2013-02-25 05:27:00,
2013-02-25 00:32:00,30.7,-7.7,29.47,NW,315,3.6,4.0,18,-99.99,,---,-99.99,VWS V14.01,2013-02-25 05:32:00,
2013-02-25 00:37:00,30.6,-7.9,29.47,West,280,4.9,6.3,18,-99.99,,---,-99.99,VWS V14.01,2013-02-25 05:37:00,
2013-02-25 00:42:00,30.2,-8.2,29.47,WNW,283,6.3,6.3,18,-99.99,,---,-99.99,VWS V14.01,2013-02-25 05:42:00,
2013-02-25 00:47:00,30.2,-8.2,29.47,WNW,303,3.1,3.1,18,-99.99,,---,-99.99,VWS V14.01,2013-02-25 05:47:00,
2013-02-25 00:52:00,30.0,-8.3,29.47,NW,308,0.0,0.0,18,-99.99,,---,-99.99,VWS V14.01,2013-02-25 05:52:00,
2013-02-25 00:57:00,30.0,-8.3,29.47,West,279,3.1,3.1,18,-99.99,,---,-99.99,VWS V14.01,2013-02-25 05:57:00,
2013-02-25 01:02:00,30.2,-8.2,29.50,NW,304,5.8,6.3,18,-99.99,,---,-99.99,VWS V14.01,2013-02-25 06:02:00,
2013-02-25 01:07:00,30.0,-8.3,29.50,NW,315,4.5,5.8,18,-99.99,,---,-99.99,VWS V14.01,2013-02-25 06:07:00,
2013-02-25 01:12:00,30.2,-6.0,29.50,WNW,282,3.6,5.8,20,-99.99,,---,-99.99,VWS V14.01,2013-02-25 06:12:00,
2013-02-25 01:18:00,30.2,-6.0,29.50,WNW,290,0.0,0.0,20,-99.99,,---,-99.99,VWS V14.01,2013-02-25 06:18:00,
2013-02-25 01:23:00,30.4,-8.0,29.50,NW,318,6.3,6.3,18,-99.99,,---,-99.99,VWS V14.01,2013-02-25 06:23:00,
2013-02-25 01:28:00,30.6,-7.9,29.50,NNW,334,3.1,5.4,18,-99.99,,---,-99.99,VWS V14.01,2013-02-25 06:28:00,
2013-02-25 01:33:00,30.6,-7.9,29.50,WNW,284,2.7,6.3,18,-99.99,,---,-99.99,VWS V14.01,2013-02-25 06:33:00,
2013-02-25 01:38:00,30.6,-7.9,29.50,NW,326,4.0,4.0,18,-99.99,,---,-99.99,VWS V14.01,2013-02-25 06:38:00,
2013-02-25 01:43:00,30.4,-5.9,29.47,NW,308,0.0,2.2,20,-99.99,,---,-99.99,VWS V14.01,2013-02-25 06:43:00,
2013-02-25 01:48:00,30.2,-6.0,29.47,NW,325,4.0,5.4,20,-99.99,,---,-99.99,VWS V14.01,2013-02-25 06:48:00,
2013-02-25 01:53:00,30.2,-6.0,29.47,WNW,287,5.4,5.4,20,-99.99,,---,-99.99,VWS V14.01,2013-02-25 06:53:00,
2013-02-25 01:58:00,30.4,-5.9,29.50,WNW,300,5.4,5.8,20,-99.99,,---,-99.99,VWS V14.01,2013-02-25 06:58:00,
2013-02-25 02:03:00,30.4,-5.9,29.50,NW,311,3.1,6.3,20,-99.99,,---,-99.99,VWS V14.01,2013-02-25 07:03:00,
2013-02-25 02:08:00,30.4,-5.9,29.50,NNW,331,4.0,5.8,20,-99.99,,---,-99.99,VWS V14.01,2013-02-25 07:08:00,
2013-02-25 02:13:00,30.6,-5.7,29.50,NNW,327,5.4,5.4,20,-99.99,,---,-99.99,VWS V14.01,2013-02-25 07:13:00,
2013-02-25 02:18:00,30.6,-5.7,29.50,WNW,283,5.8,6.3,20,-99.99,,---,-99.99,VWS V14.01,2013-02-25 07:18:00,
2013-02-25 02:23:00,30.6,-7.9,29.50,West,276,8.3,8.3,18,-99.99,,---,-99.99,VWS V14.01,2013-02-25 07:23:00,
2013-02-25 02:28:00,30.6,-7.9,29.50,NNW,344,6.3,6.3,18,-99.99,,---,-99.99,VWS V14.01,2013-02-25 07:28:00,
2013-02-25 02:33:00,30.4,-8.0,29.50,NW,308,5.8,5.8,18,-99.99,,---,-99.99,VWS V14.01,2013-02-25 07:33:00,
2013-02-25 02:38:00,30.4,-5.9,29.50,WNW,291,8.1,8.1,20,-99.99,,---,-99.99,VWS V14.01,2013-02-25 07:38:00,
2013-02-25 02:43:00,30.2,-6.0,29.50,WNW,294,6.3,7.6,20,-99.99,,---,-99.99,VWS V14.01,2013-02-25 07:43:00,
2013-02-25 02:49:00,30.2,-6.0,29.50,NW,308,6.3,8.3,20,-99.99,,---,-99.99,VWS V14.01,2013-02-25 07:49:00,
2013-02-25 02:54:00,30.2,-6.0,29.50,NW,313,5.8,7.2,20,-99.99,,---,-99.99,VWS V14.01,2013-02-25 07:54:00,
2013-02-25 02:59:00,30.2,-6.0,29.50,NW,318,3.1,5.4,20,-99.99,,---,-99.99,VWS V14.01,2013-02-25 07:59:00,
2013-02-25 03:04:00,30.2,-6.0,29.50,WNW,302,4.9,6.3,20,-99.99,,---,-99.99,VWS V14.01,2013-02-25 08:04:00,
2013-02-25 03:09:00,30.2,-6.0,29.50,NW,307,5.4,6.3,20,-99.99,,---,-99.99,VWS V14.01,2013-02-25 08:09:00,
2013-02-25 03:14:00,30.2,-6.0,29.50,NW,316,0.0,0.0,20,-99.99,,---,-99.99,VWS V14.01,2013-02-25 08:14:00,
2013-02-25 03:19:00,30.2,-6.0,29.50,NNW,337,3.1,5.4,20,-99.99,,---,-99.99,VWS V14.01,2013-02-25 08:19:00,
2013-02-25 03:24:00,30.2,-6.0,29.50,NW,319,6.3,7.6,20,-99.99,,---,-99.99,VWS V14.01,2013-02-25 08:24:00,
2013-02-25 03:30:00,30.2,-6.0,29.50,NNW,333,4.0,6.3,20,-99.99,,---,-99.99,VWS V14.01,2013-02-25 08:30:00,
2013-02-25 03:35:00,30.2,-6.0,29.50,NW,319,5.4,7.6,20,-99.99,,---,-99.99,VWS V14.01,2013-02-25 08:35:00,
2013-02-25 03:40:00,30.2,-6.0,29.50,NW,307,4.9,5.8,20,-99.99,,---,-99.99,VWS V14.01,2013-02-25 08:40:00,
2013-02-25 03:45:00,30.2,-6.0,29.50,NW,316,5.4,5.8,20,-99.99,,---,-99.99,VWS V14.01,2013-02-25 08:45:00,
2013-02-25 03:50:00,30.2,-6.0,29.50,NW,326,5.4,5.4,20,-99.99,,---,-99.99,VWS V14.01,2013-02-25 08:50:00,
2013-02-25 03:55:00,30.0,-3.3,29.50,NW,305,3.6,4.0,23,-99.99,,---,-99.99,VWS V14.01,2013-02-25 08:55:00,
2013-02-25 04:00:00,30.0,-3.3,29.50,WNW,300,6.3,6.3,23,-99.99,,---,-99.99,VWS V14.01,2013-02-25 09:00:00,
2013-02-25 04:05:00,29.8,-3.4,29.50,North,353,5.8,9.2,23,-99.99,,---,-99.99,VWS V14.01,2013-02-25 09:05:00,
2013-02-25 04:11:00,29.8,-3.4,29.50,NW,325,6.3,6.3,23,-99.99,,---,-99.99,VWS V14.01,2013-02-25 09:11:00,
2013-02-25 04:16:00,29.8,-3.4,29.50,WNW,298,2.7,5.8,23,-99.99,,---,-99.99,VWS V14.01,2013-02-25 09:16:00,
2013-02-25 04:21:00,29.7,-6.5,29.50,WNW,288,5.8,5.8,20,-99.99,,---,-99.99,VWS V14.01,2013-02-25 09:21:00,
2013-02-25 04:26:00,29.7,-6.5,29.50,NW,305,5.8,5.8,20,-99.99,,---,-99.99,VWS V14.01,2013-02-25 09:26:00,
2013-02-25 04:31:00,29.7,-6.5,29.50,WNW,295,3.1,4.9,20,-99.99,,---,-99.99,VWS V14.01,2013-02-25 09:31:00,
2013-02-25 04:36:00,29.7,-6.5,29.50,NW,308,3.6,6.3,20,-99.99,,---,-99.99,VWS V14.01,2013-02-25 09:36:00,
2013-02-25 04:41:00,29.7,-6.5,29.50,NW,313,4.9,4.9,20,-99.99,,---,-99.99,VWS V14.01,2013-02-25 09:41:00,
2013-02-25 04:47:00,29.5,-3.7,29.50,NNW,328,5.8,7.6,23,-99.99,,---,-99.99,VWS V14.01,2013-02-25 09:47:00,
2013-02-25 04:52:00,29.5,-3.7,29.50,NW,308,5.8,7.6,23,-99.99,,---,-99.99,VWS V14.01,2013-02-25 09:52:00,
2013-02-25 04:57:00,29.3,-3.9,29.50,WNW,302,5.4,6.3,23,-99.99,,---,-99.99,VWS V14.01,2013-02-25 09:57:00,
2013-02-25 05:02:00,29.3,-3.9,29.53,NW,315,5.8,8.1,23,-99.99,,---,-99.99,VWS V14.01,2013-02-25 10:02:00,
2013-02-25 05:07:00,29.1,-4.1,29.53,NNW,333,6.3,6.3,23,-99.99,,---,-99.99,VWS V14.01,2013-02-25 10:07:00,
2013-02-25 05:12:00,29.1,-4.1,29.53,NNW,344,6.3,7.6,23,-99.99,,---,-99.99,VWS V14.01,2013-02-25 10:12:00,
2013-02-25 05:18:00,28.9,-0.1,29.53,NW,322,5.8,6.3,28,-99.99,,---,-99.99,VWS V14.01,2013-02-25 10:18:00,
2013-02-25 05:23:00,28.8,2.0,29.53,NNW,331,7.6,7.6,31,-99.99,,---,-99.99,VWS V14.01,2013-02-25 10:23:00,
2013-02-25 05:28:00,28.6,1.8,29.53,NW,326,4.0,7.6,31,-99.99,,---,-99.99,VWS V14.01,2013-02-25 10:28:00,
2013-02-25 05:38:00,28.6,1.1,29.53,NW,322,5.4,6.3,30,-99.99,,---,-99.99,VWS V14.01,2013-02-25 10:38:00,
2013-02-25 05:43:00,28.8,-2.6,29.53,NNW,335,6.3,10.5,25,-99.99,,---,-99.99,VWS V14.01,2013-02-25 10:43:00,
2013-02-25 05:48:00,29.1,-4.1,29.53,NW,307,5.8,8.7,23,-99.99,,---,-99.99,VWS V14.01,2013-02-25 10:48:00,
2013-02-25 05:53:00,29.3,-6.8,29.53,NNW,329,6.7,8.1,20,-99.99,,---,-99.99,VWS V14.01,2013-02-25 10:53:00,
2013-02-25 05:58:00,29.5,-6.6,29.53,NNW,334,8.1,8.1,20,-99.99,,---,-99.99,VWS V14.01,2013-02-25 10:58:00,
2013-02-25 06:03:00,29.5,-6.6,29.53,NW,324,8.1,8.3,20,-99.99,,---,-99.99,VWS V14.01,2013-02-25 11:03:00,
2013-02-25 06:08:00,29.5,-6.6,29.53,NNW,335,4.0,5.8,20,-99.99,,---,-99.99,VWS V14.01,2013-02-25 11:08:00,
2013-02-25 06:13:00,29.3,-3.9,29.53,NW,316,7.6,7.6,23,-99.99,,---,-99.99,VWS V14.01,2013-02-25 11:13:00,
2013-02-25 06:18:00,29.3,-3.9,29.53,NW,320,5.4,5.4,23,-99.99,,---,-99.99,VWS V14.01,2013-02-25 11:18:00,
2013-02-25 06:23:00,29.1,-4.1,29.53,NW,317,5.8,5.8,23,-99.99,,---,-99.99,VWS V14.01,2013-02-25 11:23:00,
2013-02-25 06:28:00,29.1,-4.1,29.56,WNW,302,6.3,6.7,23,-99.99,,---,-99.99,VWS V14.01,2013-02-25 11:28:00,
2013-02-25 06:33:00,29.1,-4.1,29.56,NW,318,4.9,5.4,23,-99.99,,---,-99.99,VWS V14.01,2013-02-25 11:33:00,
2013-02-25 06:38:00,28.9,-4.2,29.56,NW,305,5.4,5.4,23,-99.99,,---,-99.99,VWS V14.01,2013-02-25 11:38:00,
2013-02-25 06:44:00,28.8,-4.3,29.56,NW,321,0.0,3.6,23,-99.99,,---,-99.99,VWS V14.01,2013-02-25 11:44:00,
2013-02-25 06:49:00,28.6,-4.5,29.56,NW,314,6.3,6.3,23,-99.99,,---,-99.99,VWS V14.01,2013-02-25 11:49:00,
2013-02-25 06:54:00,28.6,-4.5,29.56,WNW,300,3.6,4.0,23,-99.99,,---,-99.99,VWS V14.01,2013-02-25 11:54:00,
2013-02-25 06:59:00,28.6,-4.5,29.56,WNW,292,5.4,5.8,23,-99.99,,---,-99.99,VWS V14.01,2013-02-25 11:59:00,
2013-02-25 07:04:00,28.6,-4.5,29.56,NW,319,0.0,0.0,23,-99.99,,---,-99.99,VWS V14.01,2013-02-25 12:04:00,
2013-02-25 07:09:00,28.6,-4.5,29.56,NW,324,0.0,0.0,23,-99.99,,---,-99.99,VWS V14.01,2013-02-25 12:09:00,
2013-02-25 07:14:00,28.6,-2.8,29.56,NNW,328,0.0,0.0,25,-99.99,,---,-99.99,VWS V14.01,2013-02-25 12:14:00,
2013-02-25 07:21:00,28.9,-4.2,29.56,NNW,339,3.1,4.9,23,-99.99,,---,-99.99,VWS V14.01,2013-02-25 12:21:00,
2013-02-25 07:26:00,29.5,-3.7,29.56,NNW,345,2.7,3.6,23,-99.99,,---,-99.99,VWS V14.01,2013-02-25 12:26:00,
2013-02-25 07:31:00,29.8,-6.3,29.56,NW,322,3.6,4.0,20,-99.99,,---,-99.99,VWS V14.01,2013-02-25 12:31:00,
2013-02-25 07:36:00,30.2,-6.0,29.56,NW,305,0.0,3.1,20,-99.99,,---,-99.99,VWS V14.01,2013-02-25 12:36:00,
2013-02-25 07:41:00,30.4,-5.9,29.56,NW,326,0.0,0.0,20,-99.99,,---,-99.99,VWS V14.01,2013-02-25 12:41:00,
2013-02-25 07:46:00,30.6,-5.7,29.56,NW,323,3.1,3.6,20,-99.99,,---,-99.99,VWS V14.01,2013-02-25 12:46:00,
2013-02-25 07:51:00,30.9,-5.4,29.56,NW,320,5.4,5.4,20,-99.99,,---,-99.99,VWS V14.01,2013-02-25 12:51:00,
2013-02-25 07:57:00,31.1,-5.3,29.56,NW,317,5.8,5.8,20,-99.99,,---,-99.99,VWS V14.01,2013-02-25 12:57:00,
2013-02-25 08:02:00,31.3,-5.1,29.56,NW,321,7.6,7.6,20,-99.99,,---,-99.99,VWS V14.01,2013-02-25 13:02:00,
2013-02-25 08:07:00,31.5,-5.0,29.56,WNW,294,5.8,5.8,20,-99.99,,---,-99.99,VWS V14.01,2013-02-25 13:07:00,
2013-02-25 08:12:00,31.6,-4.8,29.56,NW,315,5.8,8.1,20,-99.99,,---,-99.99,VWS V14.01,2013-02-25 13:12:00,
2013-02-25 08:18:00,31.8,-4.7,29.56,NNW,330,8.7,8.7,20,-99.99,,---,-99.99,VWS V14.01,2013-02-25 13:18:00,
2013-02-25 08:23:00,32.2,-4.4,29.56,NNW,327,9.6,9.6,20,-99.99,,---,-99.99,VWS V14.01,2013-02-25 13:23:00,
2013-02-25 08:28:00,32.5,-4.1,29.56,NW,317,3.6,3.6,20,-99.99,,---,-99.99,VWS V14.01,2013-02-25 13:28:00,
2013-02-25 08:33:00,32.9,-3.8,29.56,NW,311,5.4,8.3,20,-99.99,,---,-99.99,VWS V14.01,2013-02-25 13:33:00,
2013-02-25 08:38:00,33.3,-3.5,29.56,North,7,6.3,10.5,20,-99.99,,---,-99.99,VWS V14.01,2013-02-25 13:38:00,
2013-02-25 08:43:00,33.4,-3.3,29.59,NNW,339,6.3,6.3,20,-99.99,,---,-99.99,VWS V14.01,2013-02-25 13:43:00,
2013-02-25 08:48:00,33.6,-3.2,29.59,NW,322,8.1,10.1,20,-99.99,,---,-99.99,VWS V14.01,2013-02-25 13:48:00,
2013-02-25 08:54:00,33.8,-3.0,29.59,NNW,333,3.6,8.1,20,-99.99,,---,-99.99,VWS V14.01,2013-02-25 13:54:00,
2013-02-25 08:59:00,34.0,-2.9,29.56,NW,312,7.6,8.3,20,-99.99,,---,-99.99,VWS V14.01,2013-02-25 13:59:00,
2013-02-25 09:04:00,34.2,-2.7,29.56,NW,326,8.3,10.5,20,-99.99,,---,-99.99,VWS V14.01,2013-02-25 14:04:00,
2013-02-25 09:09:00,34.3,-2.6,29.56,NNW,332,8.1,8.3,20,-99.99,,---,-99.99,VWS V14.01,2013-02-25 14:09:00,
2013-02-25 09:14:00,34.7,-2.3,29.59,NNW,339,10.1,10.1,20,-99.99,,---,-99.99,VWS V14.01,2013-02-25 14:14:00,
2013-02-25 09:20:00,34.7,-5.6,29.59,NNW,329,11.0,11.0,17,-99.99,,---,-99.99,VWS V14.01,2013-02-25 14:20:00,
2013-02-25 09:28:00,35.1,-2.0,29.56,North,353,5.8,5.8,20,-99.99,,---,-99.99,VWS V14.01,2013-02-25 14:28:00,
2013-02-25 09:34:00,35.1,-5.3,29.56,NNW,333,5.8,8.3,17,-99.99,,---,-99.99,VWS V14.01,2013-02-25 14:34:00,
2013-02-25 09:39:00,35.1,-5.3,29.56,NNW,334,7.6,7.6,17,-99.99,,---,-99.99,VWS V14.01,2013-02-25 14:39:00,
2013-02-25 09:44:00,35.4,-5.1,29.59,NNW,334,7.6,7.6,17,-99.99,,---,-99.99,VWS V14.01,2013-02-25 14:44:00,
2013-02-25 09:49:00,35.6,-4.9,29.59,NNW,334,7.6,7.6,17,-99.99,,---,-99.99,VWS V14.01,2013-02-25 14:49:00,
2013-02-25 09:54:00,35.6,-4.9,29.59,NNW,334,7.6,7.6,17,-99.99,,---,-99.99,VWS V14.01,2013-02-25 14:54:00,
2013-02-25 09:59:00,35.8,-4.8,29.59,NNW,334,7.6,7.6,17,-99.99,,---,-99.99,VWS V14.01,2013-02-25 14:59:00,
2013-02-25 10:05:00,36.0,-4.6,29.59,NNW,334,7.6,7.6,17,-99.99,,---,-99.99,VWS V14.01,2013-02-25 15:05:00,
2013-02-25 10:10:00,36.1,-4.5,29.59,NNW,341,3.6,3.6,17,-99.99,,---,-99.99,VWS V14.01,2013-02-25 15:10:00,
2013-02-25 10:15:00,36.1,-4.5,29.59,NW,322,7.6,8.3,17,-99.99,,---,-99.99,VWS V14.01,2013-02-25 15:15:00,
2013-02-25 10:20:00,36.5,-4.2,29.59,NW,320,0.0,8.3,17,-99.99,,---,-99.99,VWS V14.01,2013-02-25 15:20:00,
2013-02-25 10:25:00,36.7,-4.0,29.59,North,357,5.8,5.8,17,-99.99,,---,-99.99,VWS V14.01,2013-02-25 15:25:00,
2013-02-25 10:30:00,36.7,-4.0,29.59,WNW,283,3.6,3.6,17,-99.99,,---,-99.99,VWS V14.01,2013-02-25 15:30:00,
2013-02-25 10:36:00,36.9,-3.9,29.59,North,357,4.9,4.9,17,-99.99,,---,-99.99,VWS V14.01,2013-02-25 15:36:00,
2013-02-25 10:49:00,37.8,-4.4,29.59,ENE,61,0.0,5.4,16,-99.99,,---,-99.99,VWS V14.01,2013-02-25 15:49:00,
2013-02-25 10:59:00,38.1,-4.1,29.59,NNW,336,2.7,6.7,16,-99.99,,---,-99.99,VWS V14.01,2013-02-25 15:59:00,
2013-02-25 11:04:00,38.1,-4.1,29.59,NNW,346,2.7,5.8,16,-99.99,,---,-99.99,VWS V14.01,2013-02-25 16:04:00,
2013-02-25 11:09:00,38.5,-3.8,29.59,NW,323,0.0,0.0,16,-99.99,,---,-99.99,VWS V14.01,2013-02-25 16:09:00,
2013-02-25 11:14:00,38.5,-3.8,29.59,NNW,329,7.6,7.6,16,-99.99,,---,-99.99,VWS V14.01,2013-02-25 16:14:00,
2013-02-25 11:20:00,38.7,-3.7,29.59,NW,323,3.6,5.8,16,-99.99,,---,-99.99,VWS V14.01,2013-02-25 16:20:00,
2013-02-25 11:25:00,38.8,-3.5,29.59,NW,307,3.6,5.4,16,-99.99,,---,-99.99,VWS V14.01,2013-02-25 16:25:00,
2013-02-25 11:30:00,39.0,-3.4,29.59,NNW,334,7.6,8.7,16,-99.99,,---,-99.99,VWS V14.01,2013-02-25 16:30:00,
2013-02-25 11:35:00,39.2,-3.2,29.59,NW,317,4.9,5.4,16,-99.99,,---,-99.99,VWS V14.01,2013-02-25 16:35:00,
2013-02-25 11:40:00,39.4,-3.1,29.59,West,274,0.0,4.0,16,-99.99,,---,-99.99,VWS V14.01,2013-02-25 16:40:00,
2013-02-25 11:45:00,39.4,-3.1,29.59,West,262,2.7,2.7,16,-99.99,,---,-99.99,VWS V14.01,2013-02-25 16:45:00,
2013-02-25 11:50:00,39.7,-2.8,29.59,NW,310,4.0,5.8,16,-99.99,,---,-99.99,VWS V14.01,2013-02-25 16:50:00,
2013-02-25 11:55:00,39.9,-2.6,29.59,NNE,25,0.0,0.0,16,-99.99,,---,-99.99,VWS V14.01,2013-02-25 16:55:00,
2013-02-25 12:00:00,39.9,-2.6,29.59,North,0,0.0,0.0,16,-99.99,,---,-99.99,VWS V14.01,2013-02-25 17:00:00,
2013-02-25 12:05:00,40.3,-2.3,29.59,NNW,334,2.7,2.7,16,-99.99,,---,-99.99,VWS V14.01,2013-02-25 17:05:00,
2013-02-25 12:11:00,40.5,-2.2,29.59,NNE,13,4.9,4.9,16,-99.99,,---,-99.99,VWS V14.01,2013-02-25 17:11:00,
2013-02-25 12:16:00,40.6,-2.0,29.59,NW,312,2.7,9.6,16,-99.99,,---,-99.99,VWS V14.01,2013-02-25 17:16:00,
2013-02-25 12:21:00,41.0,-1.7,29.59,North,0,0.0,0.0,16,-99.99,,---,-99.99,VWS V14.01,2013-02-25 17:21:00,
2013-02-25 12:26:00,41.2,-1.6,29.59,NNW,334,8.3,10.5,16,-99.99,,---,-99.99,VWS V14.01,2013-02-25 17:26:00,
2013-02-25 12:31:00,40.8,-1.9,29.59,NW,320,8.3,8.3,16,-99.99,,---,-99.99,VWS V14.01,2013-02-25 17:31:00,
2013-02-25 12:36:00,40.8,-1.9,29.59,North,0,5.4,5.4,16,-99.99,,---,-99.99,VWS V14.01,2013-02-25 17:36:00,
2013-02-25 12:41:00,41.2,-1.6,29.59,NNE,25,2.7,2.7,16,-99.99,,---,-99.99,VWS V14.01,2013-02-25 17:41:00,
2013-02-25 12:47:00,41.5,-1.3,29.59,NW,320,10.1,10.1,16,-99.99,,---,-99.99,VWS V14.01,2013-02-25 17:47:00,
2013-02-25 12:52:00,41.5,-1.3,29.59,NW,320,10.1,10.1,16,-99.99,,---,-99.99,VWS V14.01,2013-02-25 17:52:00,
2013-02-25 12:57:00,41.5,-1.3,29.59,WNW,301,4.9,4.9,16,-99.99,,---,-99.99,VWS V14.01,2013-02-25 17:57:00,
2013-02-25 13:02:00,41.5,-1.3,29.56,NNW,333,3.1,3.1,16,-99.99,,---,-99.99,VWS V14.01,2013-02-25 18:02:00,
2013-02-25 13:07:00,41.9,-1.0,29.56,North,353,4.0,7.2,16,-99.99,,---,-99.99,VWS V14.01,2013-02-25 18:07:00,
2013-02-25 13:12:00,42.1,-0.9,29.56,NNE,21,2.2,6.3,16,-99.99,,---,-99.99,VWS V14.01,2013-02-25 18:12:00,
2013-02-25 13:18:00,42.3,-0.7,29.56,NNW,341,0.0,0.0,16,-99.99,,---,-99.99,VWS V14.01,2013-02-25 18:18:00,
2013-02-25 13:26:00,42.6,-0.4,29.56,NW,308,5.8,5.8,16,-99.99,,---,-99.99,VWS V14.01,2013-02-25 18:26:00,
2013-02-25 13:31:00,42.4,-0.6,29.56,NNE,28,3.6,4.9,16,-99.99,,---,-99.99,VWS V14.01,2013-02-25 18:31:00,
2013-02-25 13:36:00,42.8,-1.6,29.56,North,353,2.2,5.8,15,-99.99,,---,-99.99,VWS V14.01,2013-02-25 18:36:00,
2013-02-25 13:41:00,42.6,-0.4,29.56,NW,308,4.9,4.9,16,-99.99,,---,-99.99,VWS V14.01,2013-02-25 18:41:00,
2013-02-25 13:46:00,43.0,-1.5,29.59,West,275,0.0,3.1,15,-99.99,,---,-99.99,VWS V14.01,2013-02-25 18:46:00,
2013-02-25 13:51:00,43.3,-1.2,29.59,West,272,8.7,8.7,15,-99.99,,---,-99.99,VWS V14.01,2013-02-25 18:51:00,
2013-02-25 13:56:00,43.7,-0.9,29.59,North,357,2.2,5.8,15,-99.99,,---,-99.99,VWS V14.01,2013-02-25 18:56:00,
2013-02-25 14:01:00,44.1,-0.6,29.59,NW,304,4.0,5.8,15,-99.99,,---,-99.99,VWS V14.01,2013-02-25 19:01:00,
2013-02-25 14:07:00,43.9,-0.8,29.59,NW,324,5.4,5.4,15,-99.99,,---,-99.99,VWS V14.01,2013-02-25 19:07:00,
2013-02-25 14:12:00,44.1,-0.6,29.59,ENE,62,0.0,0.0,15,-99.99,,---,-99.99,VWS V14.01,2013-02-25 19:12:00,
2013-02-25 14:17:00,44.2,-0.5,29.59,NW,326,0.0,0.0,15,-99.99,,---,-99.99,VWS V14.01,2013-02-25 19:17:00,
2013-02-25 14:22:00,44.2,-0.5,29.59,NW,304,3.6,8.3,15,-99.99,,---,-99.99,VWS V14.01,2013-02-25 19:22:00,
2013-02-25 14:27:00,44.2,-0.5,29.59,WNW,297,8.1,8.1,15,-99.99,,---,-99.99,VWS V14.01,2013-02-25 19:27:00,
2013-02-25 14:32:00,44.2,-0.5,29.59,NNW,329,6.3,8.1,15,-99.99,,---,-99.99,VWS V14.01,2013-02-25 19:32:00,
2013-02-25 14:37:00,44.2,-0.5,29.59,NNW,329,4.0,8.3,15,-99.99,,---,-99.99,VWS V14.01,2013-02-25 19:37:00,
2013-02-25 14:44:00,44.6,-0.2,29.56,WNW,299,4.0,4.0,15,-99.99,,---,-99.99,VWS V14.01,2013-02-25 19:44:00,
2013-02-25 14:49:00,45.1,0.3,29.56,WNW,299,4.0,4.0,15,-99.99,,---,-99.99,VWS V14.01,2013-02-25 19:49:00,
2013-02-25 14:54:00,45.1,0.3,29.56,NW,315,3.1,3.1,15,-99.99,,---,-99.99,VWS V14.01,2013-02-25 19:54:00,
2013-02-25 14:59:00,45.0,0.1,29.59,North,11,0.0,0.0,15,-99.99,,---,-99.99,VWS V14.01,2013-02-25 19:59:00,
2013-02-25 15:05:00,45.1,0.3,29.59,North,353,0.0,0.0,15,-99.99,,---,-99.99,VWS V14.01,2013-02-25 20:05:00,
2013-02-25 15:10:00,45.3,0.4,29.59,NNE,13,0.0,0.0,15,-99.99,,---,-99.99,VWS V14.01,2013-02-25 20:10:00,
2013-02-25 15:15:00,45.0,0.1,29.59,North,349,0.0,0.0,15,-99.99,,---,-99.99,VWS V14.01,2013-02-25 20:15:00,
2013-02-25 15:20:00,44.2,-0.5,29.59,North,350,0.0,0.0,15,-99.99,,---,-99.99,VWS V14.01,2013-02-25 20:20:00,
2013-02-25 15:25:00,43.9,-0.8,29.59,NNW,340,0.0,0.0,15,-99.99,,---,-99.99,VWS V14.01,2013-02-25 20:25:00,
2013-02-25 15:30:00,44.1,-0.6,29.59,NNW,340,0.0,0.0,15,-99.99,,---,-99.99,VWS V14.01,2013-02-25 20:30:00,
2013-02-25 15:35:00,43.9,-0.8,29.59,NNW,340,0.0,0.0,15,-99.99,,---,-99.99,VWS V14.01,2013-02-25 20:35:00,
2013-02-25 15:40:00,43.9,-0.8,29.59,NNW,340,0.0,0.0,15,-99.99,,---,-99.99,VWS V14.01,2013-02-25 20:40:00,
2013-02-25 15:46:00,43.7,-0.9,29.56,North,0,0.0,0.0,15,-99.99,,---,-99.99,VWS V14.01,2013-02-25 20:46:00,
2013-02-25 15:51:00,43.7,-0.9,29.56,North,0,0.0,0.0,15,-99.99,,---,-99.99,VWS V14.01,2013-02-25 20:51:00,
2013-02-25 15:56:00,43.7,-0.9,29.56,North,0,0.0,0.0,15,-99.99,,---,-99.99,VWS V14.01,2013-02-25 20:56:00,
2013-02-25 16:01:00,43.5,-1.1,29.56,North,0,0.0,0.0,15,-99.99,,---,-99.99,VWS V14.01,2013-02-25 21:01:00,
2013-02-25 16:06:00,43.3,-1.2,29.56,North,0,0.0,0.0,15,-99.99,,---,-99.99,VWS V14.01,2013-02-25 21:06:00,
2013-02-25 16:11:00,43.5,-1.1,29.56,North,0,0.0,0.0,15,-99.99,,---,-99.99,VWS V14.01,2013-02-25 21:11:00,
2013-02-25 16:16:00,43.5,-1.1,29.56,North,0,0.0,0.0,15,-99.99,,---,-99.99,VWS V14.01,2013-02-25 21:16:00,
2013-02-25 16:22:00,43.7,-0.9,29.56,North,0,0.0,0.0,15,-99.99,,---,-99.99,VWS V14.01,2013-02-25 21:22:00,
2013-02-25 16:27:00,43.9,-0.8,29.56,North,0,0.0,0.0,15,-99.99,,---,-99.99,VWS V14.01,2013-02-25 21:27:00,
2013-02-25 16:32:00,44.2,-0.5,29.59,North,0,0.0,0.0,15,-99.99,,---,-99.99,VWS V14.01,2013-02-25 21:32:00,
2013-02-25 16:37:00,44.6,-0.2,29.59,North,0,0.0,0.0,15,-99.99,,---,-99.99,VWS V14.01,2013-02-25 21:37:00,
2013-02-25 16:42:00,45.1,0.3,29.59,North,0,0.0,0.0,15,-99.99,,---,-99.99,VWS V14.01,2013-02-25 21:42:00,
2013-02-25 16:47:00,45.3,0.4,29.56,North,0,0.0,0.0,15,-99.99,,---,-99.99,VWS V14.01,2013-02-25 21:47:00,
2013-02-25 16:52:00,45.0,0.1,29.56,North,0,0.0,0.0,15,-99.99,,---,-99.99,VWS V14.01,2013-02-25 21:52:00,
2013-02-25 16:57:00,44.8,0.0,29.59,North,0,0.0,0.0,15,-99.99,,---,-99.99,VWS V14.01,2013-02-25 21:57:00,
2013-02-25 17:03:00,44.4,-0.3,29.59,NNW,346,0.0,0.0,15,-99.99,,---,-99.99,VWS V14.01,2013-02-25 22:03:00,
2013-02-25 17:08:00,44.1,-0.6,29.59,NNE,33,0.0,0.0,15,-99.99,,---,-99.99,VWS V14.01,2013-02-25 22:08:00,
2013-02-25 17:13:00,44.1,-0.6,29.59,North,357,0.0,0.0,15,-99.99,,---,-99.99,VWS V14.01,2013-02-25 22:13:00,
2013-02-25 17:18:00,43.7,-0.9,29.59,ENE,65,0.0,0.0,15,-99.99,,---,-99.99,VWS V14.01,2013-02-25 22:18:00,
2013-02-25 17:23:00,43.5,-1.1,29.59,ENE,65,0.0,0.0,15,-99.99,,---,-99.99,VWS V14.01,2013-02-25 22:23:00,
2013-02-25 17:28:00,43.3,-1.2,29.59,ENE,65,0.0,0.0,15,-99.99,,---,-99.99,VWS V14.01,2013-02-25 22:28:00,
2013-02-25 17:33:00,43.2,-1.4,29.59,ENE,65,0.0,0.0,15,-99.99,,---,-99.99,VWS V14.01,2013-02-25 22:33:00,
2013-02-25 17:38:00,43.0,-1.5,29.59,ENE,65,0.0,0.0,15,-99.99,,---,-99.99,VWS V14.01,2013-02-25 22:38:00,
2013-02-25 17:43:00,42.8,-1.6,29.59,ENE,65,0.0,0.0,15,-99.99,,---,-99.99,VWS V14.01,2013-02-25 22:43:00,
2013-02-25 17:48:00,42.6,-0.4,29.59,ENE,65,0.0,0.0,16,-99.99,,---,-99.99,VWS V14.01,2013-02-25 22:48:00,
2013-02-25 17:53:00,42.4,-0.6,29.59,ENE,65,0.0,0.0,16,-99.99,,---,-99.99,VWS V14.01,2013-02-25 22:53:00,
2013-02-25 17:58:00,42.3,-0.7,29.59,ENE,65,0.0,0.0,16,-99.99,,---,-99.99,VWS V14.01,2013-02-25 22:58:00,
2013-02-25 18:03:00,42.4,-0.6,29.59,ENE,72,0.0,0.0,16,-99.99,,---,-99.99,VWS V14.01,2013-02-25 23:03:00,
2013-02-25 18:09:00,42.4,-0.6,29.59,ENE,74,0.0,0.0,16,-99.99,,---,-99.99,VWS V14.01,2013-02-25 23:09:00,
2013-02-25 18:14:00,42.4,-0.6,29.59,ESE,102,0.0,3.6,16,-99.99,,---,-99.99,VWS V14.01,2013-02-25 23:14:00,
2013-02-25 18:19:00,42.4,-0.6,29.59,ENE,75,0.0,0.0,16,-99.99,,---,-99.99,VWS V14.01,2013-02-25 23:19:00,
2013-02-25 18:24:00,42.4,-0.6,29.59,NE,55,0.0,0.0,16,-99.99,,---,-99.99,VWS V14.01,2013-02-25 23:24:00,
2013-02-25 18:29:00,42.4,-0.6,29.62,ENE,64,0.0,0.0,16,-99.99,,---,-99.99,VWS V14.01,2013-02-25 23:29:00,
2013-02-25 18:34:00,42.4,-0.6,29.62,ENE,69,0.0,0.0,16,-99.99,,---,-99.99,VWS V14.01,2013-02-25 23:34:00,
2013-02-25 18:39:00,42.3,-0.7,29.62,South,170,2.7,2.7,16,-99.99,,---,-99.99,VWS V14.01,2013-02-25 23:39:00,
2013-02-25 18:44:00,42.3,-0.7,29.62,ESE,106,4.0,4.0,16,-99.99,,---,-99.99,VWS V14.01,2013-02-25 23:44:00,
2013-02-25 18:49:00,42.1,-0.9,29.62,South,187,0.0,0.0,16,-99.99,,---,-99.99,VWS V14.01,2013-02-25 23:49:00,
2013-02-25 18:55:00,41.9,-1.0,29.62,East,95,0.0,4.0,16,-99.99,,---,-99.99,VWS V14.01,2013-02-25 23:55:00,
2013-02-25 19:00:00,41.7,-1.2,29.62,NE,49,3.6,3.6,16,-99.99,,---,-99.99,VWS V14.01,2013-02-26 00:00:00,
2013-02-25 19:05:00,41.5,-1.3,29.62,South,191,2.2,4.9,16,-99.99,,---,-99.99,VWS V14.01,2013-02-26 00:05:00,
2013-02-25 19:10:00,41.4,-1.5,29.62,NE,51,0.0,0.0,16,-99.99,,---,-99.99,VWS V14.01,2013-02-26 00:10:00,
2013-02-25 19:15:00,41.2,-1.6,29.59,ENE,66,0.0,0.0,16,-99.99,,---,-99.99,VWS V14.01,2013-02-26 00:15:00,
2013-02-25 19:20:00,41.0,-1.7,29.59,ESE,122,0.0,0.0,16,-99.99,,---,-99.99,VWS V14.01,2013-02-26 00:20:00,
2013-02-25 19:25:00,40.8,-1.9,29.59,ENE,76,0.0,3.1,16,-99.99,,---,-99.99,VWS V14.01,2013-02-26 00:25:00,
2013-02-25 19:30:00,40.6,-2.0,29.62,South,189,0.0,0.0,16,-99.99,,---,-99.99,VWS V14.01,2013-02-26 00:30:00,
2013-02-25 19:35:00,40.5,-2.2,29.62,ESE,109,2.2,2.2,16,-99.99,,---,-99.99,VWS V14.01,2013-02-26 00:35:00,
2013-02-25 19:40:00,40.3,-2.3,29.62,ESE,118,0.0,0.0,16,-99.99,,---,-99.99,VWS V14.01,2013-02-26 00:40:00,
2013-02-25 19:46:00,39.9,-2.6,29.62,NE,49,0.0,2.2,16,-99.99,,---,-99.99,VWS V14.01,2013-02-26 00:46:00,
2013-02-25 19:51:00,39.7,-2.8,29.62,East,86,2.7,3.6,16,-99.99,,---,-99.99,VWS V14.01,2013-02-26 00:51:00,
2013-02-25 19:56:00,39.6,-2.9,29.62,East,85,2.7,2.7,16,-99.99,,---,-99.99,VWS V14.01,2013-02-26 00:56:00,
2013-02-25 20:01:00,39.2,-3.2,29.62,East,88,4.0,4.0,16,-99.99,,---,-99.99,VWS V14.01,2013-02-26 01:01:00,
2013-02-25 20:06:00,38.8,-3.5,29.62,East,92,3.6,5.4,16,-99.99,,---,-99.99,VWS V14.01,2013-02-26 01:06:00,
2013-02-25 20:11:00,38.7,-3.7,29.62,East,95,4.0,4.0,16,-99.99,,---,-99.99,VWS V14.01,2013-02-26 01:11:00,
2013-02-25 20:16:00,38.7,-3.7,29.62,NNW,329,4.9,4.9,16,-99.99,,---,-99.99,VWS V14.01,2013-02-26 01:16:00,
2013-02-25 20:21:00,38.7,-3.7,29.62,ENE,67,2.2,2.2,16,-99.99,,---,-99.99,VWS V14.01,2013-02-26 01:21:00,
2013-02-25 20:27:00,38.5,-3.8,29.62,East,83,5.8,5.8,16,-99.99,,---,-99.99,VWS V14.01,2013-02-26 01:27:00,
2013-02-25 20:32:00,38.5,-3.8,29.62,ESE,108,5.4,5.4,16,-99.99,,---,-99.99,VWS V14.01,2013-02-26 01:32:00,
2013-02-25 20:37:00,38.5,-3.8,29.62,East,81,2.7,3.1,16,-99.99,,---,-99.99,VWS V14.01,2013-02-26 01:37:00,
2013-02-25 20:42:00,38.1,-4.1,29.62,NE,50,3.1,4.0,16,-99.99,,---,-99.99,VWS V14.01,2013-02-26 01:42:00,
2013-02-25 20:47:00,38.1,-4.1,29.62,SSW,212,0.0,3.6,16,-99.99,,---,-99.99,VWS V14.01,2013-02-26 01:47:00,
2013-02-25 20:52:00,38.1,-4.1,29.62,SE,142,0.0,0.0,16,-99.99,,---,-99.99,VWS V14.01,2013-02-26 01:52:00,
2013-02-25 20:58:00,37.9,-4.2,29.62,ENE,70,4.9,4.9,16,-99.99,,---,-99.99,VWS V14.01,2013-02-26 01:58:00,
2013-02-25 21:03:00,38.1,-4.1,29.62,ESE,117,5.4,5.4,16,-99.99,,---,-99.99,VWS V14.01,2013-02-26 02:03:00,
2013-02-25 21:08:00,38.1,-4.1,29.62,ESE,111,2.7,4.9,16,-99.99,,---,-99.99,VWS V14.01,2013-02-26 02:08:00,
2013-02-25 21:13:00,37.8,-4.4,29.59,East,82,0.0,0.0,16,-99.99,,---,-99.99,VWS V14.01,2013-02-26 02:13:00,
2013-02-25 21:18:00,37.4,-4.7,29.59,East,91,0.0,3.1,16,-99.99,,---,-99.99,VWS V14.01,2013-02-26 02:18:00,
2013-02-25 21:24:00,37.2,-3.6,29.59,ENE,57,0.0,4.0,17,-99.99,,---,-99.99,VWS V14.01,2013-02-26 02:24:00,
2013-02-25 21:29:00,37.0,-3.7,29.62,East,85,0.0,0.0,17,-99.99,,---,-99.99,VWS V14.01,2013-02-26 02:29:00,
2013-02-25 21:34:00,37.2,-3.6,29.62,East,86,0.0,0.0,17,-99.99,,---,-99.99,VWS V14.01,2013-02-26 02:34:00,
2013-02-25 21:39:00,37.4,-4.7,29.62,East,101,0.0,0.0,16,-99.99,,---,-99.99,VWS V14.01,2013-02-26 02:39:00,
2013-02-25 21:44:00,37.6,-4.5,29.62,East,86,2.7,4.5,16,-99.99,,---,-99.99,VWS V14.01,2013-02-26 02:44:00,
2013-02-25 21:49:00,37.6,-4.5,29.62,ENE,73,0.0,0.0,16,-99.99,,---,-99.99,VWS V14.01,2013-02-26 02:49:00,
2013-02-25 21:55:00,37.4,-4.7,29.62,ENE,73,0.0,0.0,16,-99.99,,---,-99.99,VWS V14.01,2013-02-26 02:55:00,
2013-02-25 22:00:00,36.7,-4.0,29.62,ENE,73,0.0,0.0,17,-99.99,,---,-99.99,VWS V14.01,2013-02-26 03:00:00,
2013-02-25 22:05:00,36.3,-4.3,29.62,ENE,73,0.0,0.0,17,-99.99,,---,-99.99,VWS V14.01,2013-02-26 03:05:00,
2013-02-25 22:10:00,36.0,-4.6,29.62,ENE,73,0.0,0.0,17,-99.99,,---,-99.99,VWS V14.01,2013-02-26 03:10:00,
2013-02-25 22:15:00,35.8,-4.8,29.62,ENE,73,0.0,0.0,17,-99.99,,---,-99.99,VWS V14.01,2013-02-26 03:15:00,
2013-02-25 22:20:00,35.8,-4.8,29.62,ENE,73,0.0,0.0,17,-99.99,,---,-99.99,VWS V14.01,2013-02-26 03:20:00,
2013-02-25 22:26:00,35.8,-4.8,29.62,ENE,58,0.0,2.7,17,-99.99,,---,-99.99,VWS V14.01,2013-02-26 03:26:00,
2013-02-25 22:31:00,36.0,-4.6,29.62,East,96,0.0,0.0,17,-99.99,,---,-99.99,VWS V14.01,2013-02-26 03:31:00,
2013-02-25 22:36:00,36.0,-4.6,29.62,ENE,68,0.0,0.0,17,-99.99,,---,-99.99,VWS V14.01,2013-02-26 03:36:00,
2013-02-25 22:41:00,36.0,-4.6,29.62,ENE,62,0.0,0.0,17,-99.99,,---,-99.99,VWS V14.01,2013-02-26 03:41:00,
2013-02-25 22:46:00,36.0,-4.6,29.62,ENE,69,0.0,0.0,17,-99.99,,---,-99.99,VWS V14.01,2013-02-26 03:46:00,
2013-02-25 22:51:00,36.1,-4.5,29.62,East,98,0.0,0.0,17,-99.99,,---,-99.99,VWS V14.01,2013-02-26 03:51:00,
2013-02-25 22:56:00,36.1,-4.5,29.62,East,93,0.0,0.0,17,-99.99,,---,-99.99,VWS V14.01,2013-02-26 03:56:00,
2013-02-25 23:01:00,36.1,-4.5,29.62,East,89,0.0,0.0,17,-99.99,,---,-99.99,VWS V14.01,2013-02-26 04:01:00,
2013-02-25 23:06:00,36.1,-4.5,29.62,ENE,77,0.0,0.0,17,-99.99,,---,-99.99,VWS V14.01,2013-02-26 04:06:00,
2013-02-25 23:12:00,36.1,-4.5,29.62,ENE,77,0.0,0.0,17,-99.99,,---,-99.99,VWS V14.01,2013-02-26 04:12:00,
2013-02-25 23:17:00,35.8,-4.8,29.62,ENE,77,0.0,0.0,17,-99.99,,---,-99.99,VWS V14.01,2013-02-26 04:17:00,
2013-02-25 23:22:00,35.2,-5.2,29.62,ENE,77,0.0,0.0,17,-99.99,,---,-99.99,VWS V14.01,2013-02-26 04:22:00,
2013-02-25 23:27:00,34.9,-5.5,29.62,ENE,77,0.0,0.0,17,-99.99,,---,-99.99,VWS V14.01,2013-02-26 04:27:00,
2013-02-25 23:32:00,34.3,-5.9,29.59,ENE,77,0.0,0.0,17,-99.99,,---,-99.99,VWS V14.01,2013-02-26 04:32:00,
2013-02-25 23:37:00,33.6,-5.3,29.59,ENE,77,0.0,0.0,18,-99.99,,---,-99.99,VWS V14.01,2013-02-26 04:37:00,
2013-02-25 23:42:00,33.6,-5.3,29.59,ENE,77,0.0,0.0,18,-99.99,,---,-99.99,VWS V14.01,2013-02-26 04:42:00,
2013-02-25 23:48:00,33.6,-5.3,29.59,ENE,77,0.0,0.0,18,-99.99,,---,-99.99,VWS V14.01,2013-02-26 04:48:00,
2013-02-25 23:53:00,33.4,-5.5,29.59,ENE,77,0.0,0.0,18,-99.99,,---,-99.99,VWS V14.01,2013-02-26 04:53:00,
2013-02-25 23:58:00,33.4,-5.5,29.62,ENE,77,0.0,0.0,18,-99.99,,---,-99.99,VWS V14.01,2013-02-26 04:58:00,